Terminal Aerodrome Forecast
Issued by NWS Charleston, WV

Current Version | Previous Version | Graphics & Text | Print | Product List | Glossary Off
Versions: 1 2 3 4 5 6 7 8 9 10 11 12 13 14 15 16 17 18 19 20 21 22 23 24 25 26 27

000
FTUS41 KRLX 232339
TAFBKW
TAF
KBKW 232339Z 2400/2424 12009G15KT P6SM -RA OVC050
     FM240200 12010G15KT 5SM -RA OVC015
     FM240400 12010G18KT 4SM RA BR OVC005
     FM241200 10010G19KT 6SM -RA OVC015=

USA.gov is the U.S. government's official web portal to all federal, state and local government web resources and services.